sensor_id;sensor_type;location;lat;lon;timestamp;P1;durP1;ratioP1;P2;durP2;ratioP2
28509;SDS011;15723;55.684;37.928;2022-10-31T08:12:19;2.08;;;1.40;;
28509;SDS011;15723;55.684;37.928;2022-10-31T08:14:46;2.75;;;1.40;;
28509;SDS011;15723;55.684;37.928;2022-10-31T08:17:14;1.90;;;1.27;;
28509;SDS011;15723;55.684;37.928;2022-10-31T08:19:47;2.80;;;1.23;;
28509;SDS011;15723;55.684;37.928;2022-10-31T08:22:15;2.88;;;1.40;;
28509;SDS011;15723;55.684;37.928;2022-10-31T10:23:55;2.55;;;1.42;;
28509;SDS011;15723;55.684;37.928;2022-10-31T10:26:38;2.70;;;1.27;;
28509;SDS011;15723;55.684;37.928;2022-10-31T10:29:24;2.13;;;1.33;;
28509;SDS011;15723;55.684;37.928;2022-10-31T10:31:55;2.33;;;1.40;;
28509;SDS011;15723;55.684;37.928;2022-10-31T10:34:27;1.70;;;1.40;;
28509;SDS011;15723;55.684;37.928;2022-10-31T10:37:23;3.65;;;1.70;;
28509;SDS011;15723;55.684;37.928;2022-10-31T10:39:53;3.33;;;1.30;;
28509;SDS011;15723;55.684;37.928;2022-10-31T10:42:25;2.65;;;1.20;;
28509;SDS011;15723;55.684;37.928;2022-10-31T10:45:16;1.98;;;0.80;;
28509;SDS011;15723;55.684;37.928;2022-10-31T10:48:06;2.80;;;1.20;;
28509;SDS011;15723;55.684;37.928;2022-10-31T10:50:48;2.97;;;1.20;;
28509;SDS011;15723;55.684;37.928;2022-10-31T10:53:29;1.92;;;1.00;;
28509;SDS011;15723;55.684;37.928;2022-10-31T10:56:49;1.10;;;1.00;;
28509;SDS011;15723;55.684;37.928;2022-10-31T10:59:15;1.92;;;1.20;;
28509;SDS011;15723;55.684;37.928;2022-10-31T11:01:43;1.00;;;0.70;;
28509;SDS011;15723;55.684;37.928;2022-10-31T11:09:28;1.02;;;0.85;;
28509;SDS011;15723;55.684;37.928;2022-10-31T11:11:54;2.85;;;0.80;;
28509;SDS011;15723;55.684;37.928;2022-10-31T11:14:22;0.93;;;0.50;;
28509;SDS011;15723;55.684;37.928;2022-10-31T11:16:52;0.98;;;0.70;;
28509;SDS011;15723;55.684;37.928;2022-10-31T11:19:34;2.88;;;1.02;;
28509;SDS011;15723;55.684;37.928;2022-10-31T11:22:33;4.57;;;1.13;;
28509;SDS011;15723;55.684;37.928;2022-10-31T11:24:52;1.60;;;1.00;;
28509;SDS011;15723;55.684;37.928;2022-10-31T11:27:22;6.50;;;1.05;;
28509;SDS011;15723;55.684;37.928;2022-10-31T11:29:50;3.58;;;1.25;;
28509;SDS011;15723;55.684;37.928;2022-10-31T11:32:23;2.63;;;1.50;;
28509;SDS011;15723;55.684;37.928;2022-10-31T11:34:55;2.72;;;1.15;;
28509;SDS011;15723;55.684;37.928;2022-10-31T11:37:34;2.45;;;1.25;;
28509;SDS011;15723;55.684;37.928;2022-10-31T11:40:06;1.35;;;0.80;;
28509;SDS011;15723;55.684;37.928;2022-10-31T11:42:42;6.22;;;1.55;;
28509;SDS011;15723;55.684;37.928;2022-10-31T11:45:25;2.25;;;0.73;;
28509;SDS011;15723;55.684;37.928;2022-10-31T11:47:58;1.05;;;0.60;;
28509;SDS011;15723;55.684;37.928;2022-10-31T11:53:18;2.30;;;0.63;;
28509;SDS011;15723;55.684;37.928;2022-10-31T11:55:58;1.25;;;0.68;;
28509;SDS011;15723;55.684;37.928;2022-10-31T11:58:41;5.55;;;1.23;;
28509;SDS011;15723;55.684;37.928;2022-10-31T12:01:25;1.65;;;0.80;;
28509;SDS011;15723;55.684;37.928;2022-10-31T12:03:54;3.10;;;0.70;;
28509;SDS011;15723;55.684;37.928;2022-10-31T12:06:29;0.65;;;0.63;;
28509;SDS011;15723;55.684;37.928;2022-10-31T12:08:59;1.15;;;0.70;;
28509;SDS011;15723;55.684;37.928;2022-10-31T12:14:28;1.95;;;0.70;;
28509;SDS011;15723;55.684;37.928;2022-10-31T12:20:00;1.05;;;0.80;;
28509;SDS011;15723;55.684;37.928;2022-10-31T12:26:01;0.70;;;0.50;;
28509;SDS011;15723;55.684;37.928;2022-10-31T12:32:37;1.45;;;0.80;;
28509;SDS011;15723;55.684;37.928;2022-10-31T12:34:56;1.30;;;0.60;;
28509;SDS011;15723;55.684;37.928;2022-10-31T12:37:44;1.13;;;0.73;;
28509;SDS011;15723;55.684;37.928;2022-10-31T12:43:22;4.03;;;0.70;;
28509;SDS011;15723;55.684;37.928;2022-10-31T12:46:10;2.30;;;0.75;;
28509;SDS011;15723;55.684;37.928;2022-10-31T12:49:11;4.05;;;1.08;;
28509;SDS011;15723;55.684;37.928;2022-10-31T12:51:52;4.80;;;1.40;;
28509;SDS011;15723;55.684;37.928;2022-10-31T12:54:40;2.03;;;1.20;;
28509;SDS011;15723;55.684;37.928;2022-10-31T12:57:28;2.90;;;1.52;;
28509;SDS011;15723;55.684;37.928;2022-10-31T13:02:39;5.72;;;1.75;;
28509;SDS011;15723;55.684;37.928;2022-10-31T13:05:17;5.10;;;1.50;;
28509;SDS011;15723;55.684;37.928;2022-10-31T13:10:27;3.28;;;1.60;;
28509;SDS011;15723;55.684;37.928;2022-10-31T13:13:01;2.58;;;1.98;;
28509;SDS011;15723;55.684;37.928;2022-10-31T13:18:09;2.00;;;1.20;;
28509;SDS011;15723;55.684;37.928;2022-10-31T13:20:41;2.90;;;1.23;;
28509;SDS011;15723;55.684;37.928;2022-10-31T13:23:27;2.28;;;1.50;;
28509;SDS011;15723;55.684;37.928;2022-10-31T13:25:56;4.90;;;2.03;;
28509;SDS011;15723;55.684;37.928;2022-10-31T13:28:40;3.50;;;1.40;;
28509;SDS011;15723;55.684;37.928;2022-10-31T13:31:17;5.10;;;1.35;;
28509;SDS011;15723;55.684;37.928;2022-10-31T13:33:48;2.60;;;1.17;;
28509;SDS011;15723;55.684;37.928;2022-10-31T13:41:44;3.15;;;1.60;;
28509;SDS011;15723;55.684;37.928;2022-10-31T13:46:50;2.30;;;1.20;;
28509;SDS011;15723;55.684;37.928;2022-10-31T13:54:35;2.53;;;1.58;;
28509;SDS011;15723;55.684;37.928;2022-10-31T13:57:16;2.60;;;1.77;;
28509;SDS011;15723;55.684;37.928;2022-10-31T13:59:54;2.22;;;1.42;;
28509;SDS011;15723;55.684;37.928;2022-10-31T14:02:27;2.03;;;1.40;;
28509;SDS011;15723;55.684;37.928;2022-10-31T14:04:57;3.60;;;1.70;;
28509;SDS011;15723;55.684;37.928;2022-10-31T14:07:28;3.72;;;1.40;;
28509;SDS011;15723;55.684;37.928;2022-10-31T14:13:08;3.55;;;1.73;;
28509;SDS011;15723;55.684;37.928;2022-10-31T14:15:57;1.55;;;1.33;;
28509;SDS011;15723;55.684;37.928;2022-10-31T14:18:33;2.28;;;1.20;;
28509;SDS011;15723;55.684;37.928;2022-10-31T14:23:41;1.60;;;1.13;;
28509;SDS011;15723;55.684;37.928;2022-10-31T14:28:58;3.75;;;1.40;;
28509;SDS011;15723;55.684;37.928;2022-10-31T14:32:01;3.40;;;1.17;;
28509;SDS011;15723;55.684;37.928;2022-10-31T14:34:40;3.80;;;1.42;;
28509;SDS011;15723;55.684;37.928;2022-10-31T14:37:49;1.95;;;1.00;;
28509;SDS011;15723;55.684;37.928;2022-10-31T14:40:26;2.28;;;1.25;;
28509;SDS011;15723;55.684;37.928;2022-10-31T14:51:57;1.77;;;1.20;;
28509;SDS011;15723;55.684;37.928;2022-10-31T14:54:27;4.03;;;1.50;;
28509;SDS011;15723;55.684;37.928;2022-10-31T14:56:59;5.15;;;1.10;;
28509;SDS011;15723;55.684;37.928;2022-10-31T14:59:33;1.15;;;0.70;;
28509;SDS011;15723;55.684;37.928;2022-10-31T15:02:17;2.83;;;1.48;;
28509;SDS011;15723;55.684;37.928;2022-10-31T15:04:55;1.55;;;0.95;;
28509;SDS011;15723;55.684;37.928;2022-10-31T15:07:25;1.75;;;1.27;;
28509;SDS011;15723;55.684;37.928;2022-10-31T15:09:59;2.42;;;0.98;;
28509;SDS011;15723;55.684;37.928;2022-10-31T15:12:46;1.45;;;1.02;;
28509;SDS011;15723;55.684;37.928;2022-10-31T15:15:13;1.65;;;1.10;;
28509;SDS011;15723;55.684;37.928;2022-10-31T15:17:55;1.17;;;0.88;;
28509;SDS011;15723;55.684;37.928;2022-10-31T15:20:30;1.45;;;1.23;;
28509;SDS011;15723;55.684;37.928;2022-10-31T15:23:04;1.90;;;1.23;;
28509;SDS011;15723;55.684;37.928;2022-10-31T15:25:33;8.98;;;1.30;;
28509;SDS011;15723;55.684;37.928;2022-10-31T15:28:00;5.32;;;1.17;;
28509;SDS011;15723;55.684;37.928;2022-10-31T15:30:28;3.92;;;1.27;;
28509;SDS011;15723;55.684;37.928;2022-10-31T15:32:55;2.97;;;1.23;;
28509;SDS011;15723;55.684;37.928;2022-10-31T15:35:22;2.28;;;1.20;;
28509;SDS011;15723;55.684;37.928;2022-10-31T15:37:51;3.33;;;1.10;;
28509;SDS011;15723;55.684;37.928;2022-10-31T15:40:19;2.47;;;1.00;;
28509;SDS011;15723;55.684;37.928;2022-10-31T15:43:00;2.20;;;1.10;;
28509;SDS011;15723;55.684;37.928;2022-10-31T15:45:29;1.23;;;1.13;;
28509;SDS011;15723;55.684;37.928;2022-10-31T15:47:57;1.23;;;1.02;;
28509;SDS011;15723;55.684;37.928;2022-10-31T15:52:58;1.85;;;1.20;;
28509;SDS011;15723;55.684;37.928;2022-10-31T15:55:27;2.30;;;1.10;;
28509;SDS011;15723;55.684;37.928;2022-10-31T15:57:56;1.88;;;1.10;;
28509;SDS011;15723;55.684;37.928;2022-10-31T16:00:32;1.45;;;1.00;;
28509;SDS011;15723;55.684;37.928;2022-10-31T16:05:51;2.45;;;1.40;;
28509;SDS011;15723;55.684;37.928;2022-10-31T16:10:57;2.25;;;1.25;;
28509;SDS011;15723;55.684;37.928;2022-10-31T16:13:54;1.95;;;1.67;;
28509;SDS011;15723;55.684;37.928;2022-10-31T16:16:24;3.50;;;1.80;;
28509;SDS011;15723;55.684;37.928;2022-10-31T16:18:51;4.38;;;1.45;;
28509;SDS011;15723;55.684;37.928;2022-10-31T16:21:27;1.80;;;1.10;;
28509;SDS011;15723;55.684;37.928;2022-10-31T16:23:59;2.17;;;1.10;;
28509;SDS011;15723;55.684;37.928;2022-10-31T16:26:29;1.52;;;1.17;;
28509;SDS011;15723;55.684;37.928;2022-10-31T16:28:57;2.03;;;1.35;;
28509;SDS011;15723;55.684;37.928;2022-10-31T16:31:25;2.35;;;1.10;;
28509;SDS011;15723;55.684;37.928;2022-10-31T16:36:50;1.27;;;1.05;;
28509;SDS011;15723;55.684;37.928;2022-10-31T16:39:16;2.25;;;1.40;;
28509;SDS011;15723;55.684;37.928;2022-10-31T16:42:12;2.42;;;1.52;;
28509;SDS011;15723;55.684;37.928;2022-10-31T16:44:38;1.67;;;1.00;;
28509;SDS011;15723;55.684;37.928;2022-10-31T16:49:41;1.63;;;0.80;;
28509;SDS011;15723;55.684;37.928;2022-10-31T16:52:08;2.67;;;2.25;;
28509;SDS011;15723;55.684;37.928;2022-10-31T16:54:35;2.90;;;1.23;;
28509;SDS011;15723;55.684;37.928;2022-10-31T16:57:02;1.77;;;1.25;;
28509;SDS011;15723;55.684;37.928;2022-10-31T16:59:30;2.65;;;1.70;;
28509;SDS011;15723;55.684;37.928;2022-10-31T17:01:59;2.38;;;1.17;;
28509;SDS011;15723;55.684;37.928;2022-10-31T17:04:28;1.77;;;1.10;;
28509;SDS011;15723;55.684;37.928;2022-10-31T17:06:54;1.70;;;1.00;;
28509;SDS011;15723;55.684;37.928;2022-10-31T17:09:20;1.50;;;0.95;;
28509;SDS011;15723;55.684;37.928;2022-10-31T17:11:49;2.28;;;1.30;;
28509;SDS011;15723;55.684;37.928;2022-10-31T17:14:17;2.80;;;1.90;;
28509;SDS011;15723;55.684;37.928;2022-10-31T17:16:44;3.25;;;2.13;;
28509;SDS011;15723;55.684;37.928;2022-10-31T17:19:10;2.78;;;1.35;;
28509;SDS011;15723;55.684;37.928;2022-10-31T17:21:37;2.80;;;1.30;;
28509;SDS011;15723;55.684;37.928;2022-10-31T17:24:04;3.58;;;1.95;;
28509;SDS011;15723;55.684;37.928;2022-10-31T17:26:31;7.22;;;2.83;;
28509;SDS011;15723;55.684;37.928;2022-10-31T17:28:57;3.22;;;1.60;;
28509;SDS011;15723;55.684;37.928;2022-10-31T17:31:31;3.42;;;1.83;;
28509;SDS011;15723;55.684;37.928;2022-10-31T17:34:01;2.72;;;1.92;;
28509;SDS011;15723;55.684;37.928;2022-10-31T17:36:30;5.72;;;3.63;;
28509;SDS011;15723;55.684;37.928;2022-10-31T17:38:57;2.78;;;1.77;;
28509;SDS011;15723;55.684;37.928;2022-10-31T17:41:24;3.13;;;1.63;;
28509;SDS011;15723;55.684;37.928;2022-10-31T17:43:54;2.35;;;1.10;;
28509;SDS011;15723;55.684;37.928;2022-10-31T17:46:21;2.40;;;1.83;;
28509;SDS011;15723;55.684;37.928;2022-10-31T17:48:48;1.58;;;1.25;;
28509;SDS011;15723;55.684;37.928;2022-10-31T17:51:15;2.83;;;1.38;;
28509;SDS011;15723;55.684;37.928;2022-10-31T17:53:42;2.42;;;1.50;;
28509;SDS011;15723;55.684;37.928;2022-10-31T17:56:08;2.65;;;1.20;;
28509;SDS011;15723;55.684;37.928;2022-10-31T17:58:35;2.20;;;1.27;;
28509;SDS011;15723;55.684;37.928;2022-10-31T18:01:06;3.60;;;1.40;;
28509;SDS011;15723;55.684;37.928;2022-10-31T18:03:35;1.80;;;1.10;;
28509;SDS011;15723;55.684;37.928;2022-10-31T18:06:01;2.53;;;1.40;;
28509;SDS011;15723;55.684;37.928;2022-10-31T18:08:29;2.95;;;1.30;;
28509;SDS011;15723;55.684;37.928;2022-10-31T18:10:57;2.08;;;1.23;;
28509;SDS011;15723;55.684;37.928;2022-10-31T18:13:27;1.98;;;1.40;;
28509;SDS011;15723;55.684;37.928;2022-10-31T18:15:53;1.27;;;1.10;;
28509;SDS011;15723;55.684;37.928;2022-10-31T18:18:20;5.35;;;1.38;;
28509;SDS011;15723;55.684;37.928;2022-10-31T18:20:46;2.30;;;1.17;;
28509;SDS011;15723;55.684;37.928;2022-10-31T18:23:13;2.65;;;1.27;;
28509;SDS011;15723;55.684;37.928;2022-10-31T18:25:39;4.20;;;1.17;;
28509;SDS011;15723;55.684;37.928;2022-10-31T18:28:08;2.08;;;1.23;;
28509;SDS011;15723;55.684;37.928;2022-10-31T18:30:37;2.10;;;0.93;;
28509;SDS011;15723;55.684;37.928;2022-10-31T18:33:05;2.25;;;0.75;;
28509;SDS011;15723;55.684;37.928;2022-10-31T18:35:33;0.93;;;0.82;;
28509;SDS011;15723;55.684;37.928;2022-10-31T18:38:00;1.92;;;0.90;;
28509;SDS011;15723;55.684;37.928;2022-10-31T18:40:27;1.42;;;1.10;;
28509;SDS011;15723;55.684;37.928;2022-10-31T18:42:53;2.40;;;1.10;;
28509;SDS011;15723;55.684;37.928;2022-10-31T18:45:19;2.25;;;0.90;;
28509;SDS011;15723;55.684;37.928;2022-10-31T18:47:46;3.58;;;0.90;;
28509;SDS011;15723;55.684;37.928;2022-10-31T18:50:15;1.88;;;0.95;;
28509;SDS011;15723;55.684;37.928;2022-10-31T18:52:41;1.73;;;0.88;;
28509;SDS011;15723;55.684;37.928;2022-10-31T18:55:08;2.78;;;1.15;;
28509;SDS011;15723;55.684;37.928;2022-10-31T18:57:34;1.95;;;1.05;;
28509;SDS011;15723;55.684;37.928;2022-10-31T19:00:02;1.58;;;1.00;;
28509;SDS011;15723;55.684;37.928;2022-10-31T19:02:30;2.20;;;1.27;;
28509;SDS011;15723;55.684;37.928;2022-10-31T19:04:56;1.75;;;1.02;;
28509;SDS011;15723;55.684;37.928;2022-10-31T19:07:22;2.22;;;1.45;;
28509;SDS011;15723;55.684;37.928;2022-10-31T19:09:49;2.55;;;0.80;;
28509;SDS011;15723;55.684;37.928;2022-10-31T19:12:15;1.83;;;1.08;;
28509;SDS011;15723;55.684;37.928;2022-10-31T19:14:41;2.22;;;1.23;;
28509;SDS011;15723;55.684;37.928;2022-10-31T19:17:07;2.65;;;0.88;;
28509;SDS011;15723;55.684;37.928;2022-10-31T19:19:34;2.70;;;1.15;;
28509;SDS011;15723;55.684;37.928;2022-10-31T19:22:00;1.85;;;1.20;;
28509;SDS011;15723;55.684;37.928;2022-10-31T19:24:27;2.13;;;0.90;;
28509;SDS011;15723;55.684;37.928;2022-10-31T19:26:53;1.85;;;1.00;;
28509;SDS011;15723;55.684;37.928;2022-10-31T19:29:19;2.28;;;0.95;;
28509;SDS011;15723;55.684;37.928;2022-10-31T19:31:45;2.33;;;1.25;;
28509;SDS011;15723;55.684;37.928;2022-10-31T19:34:13;2.10;;;1.10;;
28509;SDS011;15723;55.684;37.928;2022-10-31T19:36:40;2.60;;;1.05;;
28509;SDS011;15723;55.684;37.928;2022-10-31T19:39:08;3.55;;;1.15;;
28509;SDS011;15723;55.684;37.928;2022-10-31T19:41:36;2.00;;;0.90;;
28509;SDS011;15723;55.684;37.928;2022-10-31T19:44:02;2.97;;;1.00;;
28509;SDS011;15723;55.684;37.928;2022-10-31T19:46:32;2.67;;;1.00;;
28509;SDS011;15723;55.684;37.928;2022-10-31T19:48:58;2.30;;;1.02;;
28509;SDS011;15723;55.684;37.928;2022-10-31T19:51:25;3.30;;;1.10;;
28509;SDS011;15723;55.684;37.928;2022-10-31T19:53:52;2.28;;;0.95;;
28509;SDS011;15723;55.684;37.928;2022-10-31T19:56:20;1.05;;;0.85;;
28509;SDS011;15723;55.684;37.928;2022-10-31T19:58:49;2.67;;;1.10;;
28509;SDS011;15723;55.684;37.928;2022-10-31T20:01:20;1.70;;;0.93;;
28509;SDS011;15723;55.684;37.928;2022-10-31T20:03:48;2.83;;;0.80;;
28509;SDS011;15723;55.684;37.928;2022-10-31T20:06:22;1.15;;;1.05;;
28509;SDS011;15723;55.684;37.928;2022-10-31T20:08:56;3.22;;;0.80;;
28509;SDS011;15723;55.684;37.928;2022-10-31T20:11:23;2.38;;;1.10;;
28509;SDS011;15723;55.684;37.928;2022-10-31T20:13:53;1.63;;;0.80;;
28509;SDS011;15723;55.684;37.928;2022-10-31T20:16:20;3.15;;;0.90;;
28509;SDS011;15723;55.684;37.928;2022-10-31T20:18:47;1.92;;;0.80;;
28509;SDS011;15723;55.684;37.928;2022-10-31T20:21:17;6.25;;;0.98;;
28509;SDS011;15723;55.684;37.928;2022-10-31T20:23:45;2.70;;;1.23;;
28509;SDS011;15723;55.684;37.928;2022-10-31T20:26:13;1.52;;;0.73;;
28509;SDS011;15723;55.684;37.928;2022-10-31T20:28:41;1.30;;;0.68;;
28509;SDS011;15723;55.684;37.928;2022-10-31T20:31:12;2.17;;;1.00;;
28509;SDS011;15723;55.684;37.928;2022-10-31T20:33:40;1.70;;;1.10;;
28509;SDS011;15723;55.684;37.928;2022-10-31T20:36:07;0.88;;;0.73;;
28509;SDS011;15723;55.684;37.928;2022-10-31T20:38:36;1.08;;;0.73;;
28509;SDS011;15723;55.684;37.928;2022-10-31T20:41:04;2.17;;;1.10;;
28509;SDS011;15723;55.684;37.928;2022-10-31T20:43:31;2.03;;;0.80;;
28509;SDS011;15723;55.684;37.928;2022-10-31T20:46:02;2.78;;;0.90;;
28509;SDS011;15723;55.684;37.928;2022-10-31T20:48:34;1.05;;;0.70;;
28509;SDS011;15723;55.684;37.928;2022-10-31T20:51:02;2.65;;;0.65;;
28509;SDS011;15723;55.684;37.928;2022-10-31T20:53:31;0.90;;;0.57;;
28509;SDS011;15723;55.684;37.928;2022-10-31T20:58:32;1.48;;;0.80;;
28509;SDS011;15723;55.684;37.928;2022-10-31T21:00:58;1.98;;;1.08;;
28509;SDS011;15723;55.684;37.928;2022-10-31T21:03:25;1.42;;;0.70;;
28509;SDS011;15723;55.684;37.928;2022-10-31T21:05:55;2.25;;;1.10;;
28509;SDS011;15723;55.684;37.928;2022-10-31T21:08:23;2.85;;;1.00;;
28509;SDS011;15723;55.684;37.928;2022-10-31T21:10:51;2.38;;;0.77;;
28509;SDS011;15723;55.684;37.928;2022-10-31T21:13:17;4.05;;;0.93;;
28509;SDS011;15723;55.684;37.928;2022-10-31T21:15:44;1.15;;;0.70;;
28509;SDS011;15723;55.684;37.928;2022-10-31T21:18:10;2.42;;;0.70;;
28509;SDS011;15723;55.684;37.928;2022-10-31T21:20:40;1.17;;;0.80;;
28509;SDS011;15723;55.684;37.928;2022-10-31T21:23:09;1.58;;;0.90;;
28509;SDS011;15723;55.684;37.928;2022-10-31T21:25:37;1.95;;;0.90;;
28509;SDS011;15723;55.684;37.928;2022-10-31T21:28:07;1.33;;;0.70;;
28509;SDS011;15723;55.684;37.928;2022-10-31T21:30:45;2.03;;;0.70;;
28509;SDS011;15723;55.684;37.928;2022-10-31T21:33:13;1.75;;;0.68;;
28509;SDS011;15723;55.684;37.928;2022-10-31T21:35:39;2.30;;;0.50;;
28509;SDS011;15723;55.684;37.928;2022-10-31T21:38:12;3.38;;;0.85;;
28509;SDS011;15723;55.684;37.928;2022-10-31T21:40:39;2.50;;;1.10;;
28509;SDS011;15723;55.684;37.928;2022-10-31T21:43:05;0.95;;;0.68;;
28509;SDS011;15723;55.684;37.928;2022-10-31T21:45:31;2.75;;;0.90;;
28509;SDS011;15723;55.684;37.928;2022-10-31T21:47:57;1.20;;;0.73;;
28509;SDS011;15723;55.684;37.928;2022-10-31T21:50:24;1.55;;;0.70;;
28509;SDS011;15723;55.684;37.928;2022-10-31T21:52:50;1.02;;;0.60;;
28509;SDS011;15723;55.684;37.928;2022-10-31T21:55:17;1.42;;;0.88;;
28509;SDS011;15723;55.684;37.928;2022-10-31T21:57:43;0.70;;;0.70;;
28509;SDS011;15723;55.684;37.928;2022-10-31T22:00:09;1.33;;;0.70;;
28509;SDS011;15723;55.684;37.928;2022-10-31T22:02:36;1.13;;;0.52;;
28509;SDS011;15723;55.684;37.928;2022-10-31T22:05:02;2.67;;;0.70;;
28509;SDS011;15723;55.684;37.928;2022-10-31T22:07:30;2.25;;;0.77;;
28509;SDS011;15723;55.684;37.928;2022-10-31T22:09:57;1.42;;;0.95;;
28509;SDS011;15723;55.684;37.928;2022-10-31T22:12:23;1.33;;;0.80;;
28509;SDS011;15723;55.684;37.928;2022-10-31T22:14:49;2.40;;;0.80;;
28509;SDS011;15723;55.684;37.928;2022-10-31T22:17:15;2.75;;;0.80;;
28509;SDS011;15723;55.684;37.928;2022-10-31T22:19:41;1.58;;;0.80;;
28509;SDS011;15723;55.684;37.928;2022-10-31T22:22:09;1.20;;;0.88;;
28509;SDS011;15723;55.684;37.928;2022-10-31T22:24:37;1.13;;;0.70;;
28509;SDS011;15723;55.684;37.928;2022-10-31T22:27:03;2.67;;;1.15;;
28509;SDS011;15723;55.684;37.928;2022-10-31T22:29:29;1.10;;;0.70;;
28509;SDS011;15723;55.684;37.928;2022-10-31T22:31:55;1.92;;;0.73;;
28509;SDS011;15723;55.684;37.928;2022-10-31T22:34:22;2.90;;;0.63;;
28509;SDS011;15723;55.684;37.928;2022-10-31T22:36:48;1.25;;;0.65;;
28509;SDS011;15723;55.684;37.928;2022-10-31T22:39:14;1.25;;;0.70;;
28509;SDS011;15723;55.684;37.928;2022-10-31T22:41:40;2.95;;;0.90;;
28509;SDS011;15723;55.684;37.928;2022-10-31T22:44:07;0.85;;;0.70;;
28509;SDS011;15723;55.684;37.928;2022-10-31T22:46:34;1.10;;;0.68;;
28509;SDS011;15723;55.684;37.928;2022-10-31T22:49:04;0.63;;;0.63;;
28509;SDS011;15723;55.684;37.928;2022-10-31T22:54:03;0.80;;;0.60;;
28509;SDS011;15723;55.684;37.928;2022-10-31T22:56:32;2.15;;;0.80;;
28509;SDS011;15723;55.684;37.928;2022-10-31T22:58:59;2.08;;;0.50;;
28509;SDS011;15723;55.684;37.928;2022-10-31T23:01:27;0.77;;;0.70;;
28509;SDS011;15723;55.684;37.928;2022-10-31T23:03:55;1.75;;;0.80;;
28509;SDS011;15723;55.684;37.928;2022-10-31T23:06:23;0.47;;;0.45;;
28509;SDS011;15723;55.684;37.928;2022-10-31T23:08:51;4.53;;;0.77;;
28509;SDS011;15723;55.684;37.928;2022-10-31T23:11:22;1.40;;;0.77;;
28509;SDS011;15723;55.684;37.928;2022-10-31T23:13:59;0.50;;;0.50;;
28509;SDS011;15723;55.684;37.928;2022-10-31T23:16:51;1.30;;;0.65;;
28509;SDS011;15723;55.684;37.928;2022-10-31T23:19:23;1.63;;;0.60;;
28509;SDS011;15723;55.684;37.928;2022-10-31T23:21:50;2.33;;;0.77;;
28509;SDS011;15723;55.684;37.928;2022-10-31T23:24:22;1.08;;;0.57;;
28509;SDS011;15723;55.684;37.928;2022-10-31T23:26:50;1.75;;;0.57;;
28509;SDS011;15723;55.684;37.928;2022-10-31T23:29:40;1.13;;;0.60;;
28509;SDS011;15723;55.684;37.928;2022-10-31T23:32:15;1.30;;;0.80;;
28509;SDS011;15723;55.684;37.928;2022-10-31T23:34:50;0.70;;;0.43;;
28509;SDS011;15723;55.684;37.928;2022-10-31T23:37:19;0.82;;;0.40;;
28509;SDS011;15723;55.684;37.928;2022-10-31T23:39:46;0.50;;;0.40;;
28509;SDS011;15723;55.684;37.928;2022-10-31T23:42:13;1.40;;;0.60;;
28509;SDS011;15723;55.684;37.928;2022-10-31T23:44:40;2.25;;;0.57;;
28509;SDS011;15723;55.684;37.928;2022-10-31T23:47:06;0.82;;;0.60;;
28509;SDS011;15723;55.684;37.928;2022-10-31T23:49:33;0.88;;;0.65;;
28509;SDS011;15723;55.684;37.928;2022-10-31T23:51:59;0.40;;;0.32;;
28509;SDS011;15723;55.684;37.928;2022-10-31T23:54:26;1.67;;;0.60;;
28509;SDS011;15723;55.684;37.928;2022-10-31T23:56:53;1.00;;;0.50;;
28509;SDS011;15723;55.684;37.928;2022-10-31T23:59:19;0.50;;;0.50;;
